Time;durP1;ratioP1;P1;durP2;ratioP2;P2;SDS_P1;SDS_P2;PMS_P1;PMS_P2;Temp;Humidity;BMP_temperature;BMP_pressure;BME280_temperature;BME280_humidity;BME280_pressure;Samples;Min_cycle;Max_cycle;Signal;HPM_P1;HPM_P2
2022/10/13 00:07:53;;;;;;;140.30;73.40;;;;;;;4.15;76.10;99508.96;422897;1296;108313;-39
2022/10/13 00:18:00;;;;;;;160.40;83.60;;;;;;;4.37;76.26;99502.01;422724;1299;95611;-40
2022/10/13 00:28:07;;;;;;;159.90;83.30;;;;;;;4.09;75.72;99492.15;422879;1296;95935;-40
2022/10/13 00:38:15;;;;;;;117.60;69.60;;;;;;;3.86;75.92;99485.45;422398;1296;109634;-40
2022/10/13 00:48:26;;;;;;;105.40;63.10;;;;;;;3.64;75.81;99480.67;422701;1288;107372;-41
2022/10/13 00:58:36;;;;;;;101.40;59.90;;;;;;;3.58;76.19;99481.98;422780;1296;96351;-40
2022/10/13 01:08:43;;;;;;;107.00;57.90;;;;;;;3.59;76.21;99474.14;422864;1288;109271;-39
2022/10/13 01:19:00;;;;;;;150.00;75.80;;;;;;;3.47;76.09;99472.33;422636;1293;108398;-39
2022/10/13 01:29:20;;;;;;;154.30;78.10;;;;;;;3.25;76.10;99473.83;422494;1294;108548;-40
2022/10/13 01:39:30;;;;;;;149.10;75.30;;;;;;;3.03;76.22;99470.95;422558;1292;98171;-40
2022/10/13 01:49:39;;;;;;;88.40;51.30;;;;;;;2.81;76.09;99455.49;422826;1286;97908;-40
2022/10/13 01:59:46;;;;;;;77.90;44.80;;;;;;;2.74;76.48;99437.84;422794;1294;108827;-40
2022/10/13 02:09:53;;;;;;;78.70;42.00;;;;;;;2.83;76.76;99426.30;422279;1289;97469;-40
2022/10/13 02:20:05;;;;;;;72.90;42.10;;;;;;;2.90;76.81;99423.88;422832;1296;110692;-40
2022/10/13 02:30:20;;;;;;;86.80;44.90;;;;;;;2.83;76.70;99419.39;422645;1295;107414;-39
2022/10/13 02:40:28;;;;;;;70.00;38.50;;;;;;;2.66;76.86;99405.68;422910;1288;97896;-40
2022/10/13 02:50:35;;;;;;;58.40;30.60;;;;;;;2.61;77.04;99408.09;423013;1296;109323;-39
2022/10/13 03:00:42;;;;;;;72.70;29.60;;;;;;;2.67;77.14;99408.20;422881;1294;106716;-39
2022/10/13 03:10:49;;;;;;;58.10;31.90;;;;;;;2.69;76.93;99410.98;422701;1293;97860;-39
2022/10/13 03:20:59;;;;;;;72.40;35.50;;;;;;;2.49;76.92;99413.17;422866;1296;107116;-40
2022/10/13 03:31:08;;;;;;;68.70;36.30;;;;;;;2.26;76.90;99406.01;422847;1294;98635;-39
2022/10/13 03:41:18;;;;;;;82.10;46.10;;;;;;;2.02;77.13;99399.27;422927;1294;97966;-39
2022/10/13 03:51:25;;;;;;;53.40;31.60;;;;;;;1.89;77.19;99401.45;422775;1296;109386;-40
2022/10/13 04:01:33;;;;;;;61.60;33.40;;;;;;;1.75;76.98;99395.20;422643;1286;108513;-41
2022/10/13 04:11:41;;;;;;;66.50;33.70;;;;;;;1.76;77.31;99388.83;422815;1294;97521;-40
2022/10/13 04:21:47;;;;;;;64.90;36.90;;;;;;;1.80;77.24;99386.49;422942;1296;107016;-40
2022/10/13 04:31:54;;;;;;;82.90;47.20;;;;;;;1.72;77.31;99381.96;422375;1294;97924;-40
2022/10/13 04:42:02;;;;;;;96.10;49.70;;;;;;;1.55;77.41;99376.88;422653;1296;98465;-39
2022/10/13 04:52:09;;;;;;;77.60;40.50;;;;;;;1.49;77.56;99377.49;422624;1295;110583;-40
2022/10/13 05:02:16;;;;;;;82.50;41.90;;;;;;;1.56;77.75;99379.77;422474;1284;108425;-40
2022/10/13 05:12:24;;;;;;;81.50;40.70;;;;;;;1.70;77.87;99381.33;423158;1292;97870;-40
2022/10/13 05:22:31;;;;;;;68.70;38.20;;;;;;;1.87;77.96;99381.09;422951;1294;108253;-40
2022/10/13 05:32:37;;;;;;;75.20;41.40;;;;;;;2.07;78.21;99386.06;422564;1296;97857;-41
2022/10/13 05:42:45;;;;;;;92.30;50.70;;;;;;;2.17;78.39;99382.55;422694;1291;97494;-40
2022/10/13 05:52:52;;;;;;;103.40;54.40;;;;;;;2.24;78.52;99387.55;422821;1303;110473;-39
2022/10/13 06:03:04;;;;;;;83.00;48.30;;;;;;;2.33;78.31;99386.69;422769;1280;108124;-40
2022/10/13 06:13:11;;;;;;;95.60;54.20;;;;;;;3.09;79.02;99388.05;422848;1286;97544;-39
2022/10/13 06:23:18;;;;;;;95.20;51.30;;;;;;;4.45;78.74;99382.39;422963;1286;109587;-40
2022/10/13 06:33:26;;;;;;;128.10;68.40;;;;;;;5.22;78.25;99373.88;422560;1286;108265;-41
2022/10/13 06:43:33;;;;;;;141.40;75.20;;;;;;;5.78;78.02;99368.92;422559;1286;98648;-40
2022/10/13 06:53:46;;;;;;;91.70;52.90;;;;;;;6.21;78.05;99355.08;423013;1294;110417;-39
2022/10/13 07:03:53;;;;;;;56.40;31.40;;;;;;;6.97;78.41;99341.56;423191;1292;107374;-39
2022/10/13 07:14:00;;;;;;;50.90;24.80;;;;;;;8.00;77.99;99335.63;423298;1278;97483;-40
2022/10/13 07:24:10;;;;;;;44.50;25.40;;;;;;;8.75;77.92;99329.61;423342;1292;111534;-40
2022/10/13 07:34:17;;;;;;;40.80;21.90;;;;;;;9.59;77.73;99317.63;422650;1283;107425;-41
2022/10/13 07:44:25;;;;;;;46.40;26.70;;;;;;;10.65;77.36;99313.09;422694;1280;97790;-41
2022/10/13 07:54:32;;;;;;;39.90;20.80;;;;;;;11.69;76.33;99298.30;422571;1296;97494;-40
2022/10/13 08:04:40;;;;;;;46.00;28.90;;;;;;;11.76;74.11;99298.15;422873;1286;111557;-40
2022/10/13 08:14:49;;;;;;;60.50;33.20;;;;;;;11.73;73.46;99290.81;422990;1286;106583;-40
2022/10/13 08:35:02;;;;;;;27.70;14.10;;;;;;;12.27;71.59;99284.64;422396;1292;283040;-41
2022/10/13 08:45:20;;;;;;;28.40;13.10;;;;;;;12.40;70.42;99284.13;423162;1283;108907;-41
2022/10/13 08:55:49;;;;;;;20.60;13.20;;;;;;;12.30;68.01;99276.36;423430;1290;97526;-40
2022/10/13 09:06:00;;;;;;;26.30;14.30;;;;;;;12.62;68.05;99264.92;422802;1289;97892;-41
2022/10/13 09:16:08;;;;;;;24.70;11.40;;;;;;;12.86;67.87;99258.54;423001;1283;109908;-40
2022/10/13 09:26:17;;;;;;;19.30;11.70;;;;;;;13.29;67.16;99252.09;423170;1290;106646;-40
2022/10/13 09:36:24;;;;;;;22.40;11.20;;;;;;;13.58;66.99;99253.36;423248;1293;97599;-41
2022/10/13 09:46:31;;;;;;;20.80;10.30;;;;;;;13.93;66.76;99237.16;422943;1285;112978;-40
2022/10/13 09:56:37;;;;;;;20.80;10.40;;;;;;;14.29;66.48;99232.69;423042;1287;108187;-41
2022/10/13 10:06:45;;;;;;;21.30;10.40;;;;;;;14.55;66.19;99228.96;423166;1293;97883;-41
2022/10/13 10:16:56;;;;;;;15.80;9.10;;;;;;;14.83;65.79;99219.34;422880;1289;110136;-40
2022/10/13 10:27:01;;;;;;;22.40;8.30;;;;;;;15.08;65.36;99203.69;422672;1293;108373;-40
2022/10/13 10:37:17;;;;;;;18.10;7.80;;;;;;;15.20;64.68;99198.55;422954;1287;97490;-41
2022/10/13 10:47:39;;;;;;;14.30;8.00;;;;;;;15.36;64.14;99195.61;422863;1292;97467;-40
2022/10/13 10:57:46;;;;;;;23.90;8.20;;;;;;;15.54;63.79;99182.15;422958;1288;110754;-41
2022/10/13 11:18:41;;;;;;;17.20;7.70;;;;;;;15.85;62.95;99166.63;423061;1293;97972;-40
2022/10/13 11:39:00;;;;;;;15.70;7.70;;;;;;;16.05;62.04;99146.39;423293;1285;107371;-39
2022/10/13 11:49:49;;;;;;;9.10;6.50;;;;;;;16.08;61.82;99132.87;423339;1286;97934;-39
2022/10/13 11:59:57;;;;;;;13.30;6.40;;;;;;;16.24;61.80;99126.13;422800;1286;97583;-40
2022/10/13 12:10:08;;;;;;;18.40;6.00;;;;;;;16.22;60.78;99115.71;422569;1286;110932;-41
2022/10/13 12:20:24;;;;;;;12.90;6.00;;;;;;;16.22;60.80;99103.38;422883;1297;107599;-41
2022/10/13 12:30:35;;;;;;;14.40;5.50;;;;;;;16.30;60.71;99097.36;422755;1292;97870;-39
2022/10/13 12:40:43;;;;;;;17.50;6.50;;;;;;;16.32;60.49;99085.96;422965;1286;109757;-40
2022/10/13 12:50:50;;;;;;;15.70;10.80;;;;;;;16.35;60.39;99078.46;422969;1299;107712;-40
2022/10/13 13:00:57;;;;;;;10.10;6.10;;;;;;;16.34;60.56;99067.47;422876;1296;97781;-40
2022/10/13 13:11:05;;;;;;;9.80;6.40;;;;;;;16.27;59.79;99059.40;422704;1296;110809;-40
2022/10/13 13:21:12;;;;;;;13.70;7.10;;;;;;;16.23;59.68;99046.56;422595;1295;109238;-40
2022/10/13 13:31:22;;;;;;;11.30;6.90;;;;;;;16.20;59.70;99035.17;422731;1296;97861;-41
2022/10/13 13:41:30;;;;;;;14.10;7.00;;;;;;;16.18;59.83;99035.06;422735;1284;109943;-41
2022/10/13 13:51:37;;;;;;;11.30;6.70;;;;;;;16.12;59.60;99032.04;422881;1292;106762;-41
2022/10/13 14:01:45;;;;;;;15.00;6.90;;;;;;;16.08;59.68;99025.11;422656;1299;97867;-41
2022/10/13 14:11:52;;;;;;;10.80;7.60;;;;;;;15.95;59.78;99027.05;423077;1294;97867;-39
2022/10/13 14:22:00;;;;;;;99.10;13.70;;;;;;;15.85;60.06;99018.16;423426;1296;111085;-40
2022/10/13 14:32:13;;;;;;;21.70;8.20;;;;;;;15.74;59.75;99010.49;422956;1293;109977;-39
2022/10/13 14:42:20;;;;;;;12.30;6.90;;;;;;;15.56;60.02;99010.73;422885;1289;97808;-41
2022/10/13 14:52:28;;;;;;;17.70;7.60;;;;;;;15.39;60.19;99011.73;422621;1294;97615;-40
2022/10/13 15:02:35;;;;;;;17.30;8.10;;;;;;;15.18;60.30;99012.67;423001;1294;111242;-40
2022/10/13 15:12:43;;;;;;;15.40;8.40;;;;;;;14.96;60.72;99007.33;422828;1289;106977;-41
2022/10/13 15:22:48;;;;;;;17.10;9.70;;;;;;;14.68;60.96;99005.01;422713;1299;98545;-41
2022/10/13 15:32:55;;;;;;;18.50;10.80;;;;;;;14.29;61.46;99004.20;422601;1293;98003;-40
2022/10/13 15:43:01;;;;;;;22.90;10.90;;;;;;;13.81;62.18;99000.10;422513;1292;111258;-40
2022/10/13 15:53:08;;;;;;;33.30;14.50;;;;;;;13.22;62.83;98998.31;422733;1296;107609;-40
2022/10/13 16:03:13;;;;;;;22.00;12.20;;;;;;;12.70;63.46;98994.70;423118;1294;97219;-40
2022/10/13 16:13:21;;;;;;;35.10;19.10;;;;;;;12.49;64.24;98995.25;423163;1296;107294;-40
2022/10/13 16:23:29;;;;;;;48.90;24.00;;;;;;;12.17;64.70;99000.70;422455;1286;98171;-40
2022/10/13 16:33:36;;;;;;;33.30;19.90;;;;;;;11.79;65.11;98994.78;422701;1285;111582;-40
2022/10/13 16:43:44;;;;;;;40.30;20.40;;;;;;;11.52;65.48;98991.23;422629;1296;109372;-38
2022/10/13 16:53:53;;;;;;;34.60;21.00;;;;;;;11.30;65.90;98991.99;422663;1293;97925;-39
2022/10/13 17:04:00;;;;;;;49.00;27.00;;;;;;;11.11;66.35;98987.41;422918;1286;110797;-40
2022/10/13 17:14:09;;;;;;;49.80;30.60;;;;;;;10.87;66.87;98985.44;423029;1296;109489;-39
2022/10/13 17:24:18;;;;;;;59.70;32.70;;;;;;;10.58;67.16;98984.67;422565;1295;98270;-40
2022/10/13 17:34:25;;;;;;;41.80;25.00;;;;;;;10.40;67.46;98979.03;422539;1286;97468;-40
2022/10/13 17:44:31;;;;;;;47.00;26.60;;;;;;;10.41;67.89;98977.96;422748;1292;107750;-40
2022/10/13 17:54:38;;;;;;;34.00;22.00;;;;;;;10.49;68.30;98976.33;422839;1294;97480;-40
2022/10/13 18:04:45;;;;;;;37.70;23.70;;;;;;;10.53;68.53;98973.89;422624;1296;110567;-40
2022/10/13 18:14:52;;;;;;;43.40;25.90;;;;;;;10.58;68.84;98976.42;422749;1286;108645;-41
2022/10/13 18:25:00;;;;;;;47.10;29.20;;;;;;;10.56;68.90;98978.00;422562;1296;98172;-41
2022/10/13 18:35:06;;;;;;;55.10;31.50;;;;;;;10.52;69.18;98975.33;422601;1287;110919;-41
2022/10/13 18:45:13;;;;;;;83.10;42.20;;;;;;;10.48;69.30;98977.16;422844;1286;108882;-41
2022/10/13 18:55:21;;;;;;;61.40;36.60;;;;;;;10.30;69.61;98979.77;422748;1292;97508;-42
2022/10/13 19:05:28;;;;;;;64.80;33.90;;;;;;;10.10;69.94;98974.77;422900;1296;112174;-41
2022/10/13 19:15:38;;;;;;;59.50;34.90;;;;;;;10.00;70.25;98969.39;423076;1292;107100;-41
2022/10/13 19:25:44;;;;;;;57.60;34.10;;;;;;;10.03;70.67;98966.64;422769;1286;96704;-41
2022/10/13 19:35:52;;;;;;;65.10;35.90;;;;;;;10.09;70.89;98967.48;422777;1292;108087;-41
2022/10/13 19:45:59;;;;;;;81.20;41.30;;;;;;;9.99;71.01;98959.20;423065;1286;96662;-41
2022/10/13 19:56:05;;;;;;;73.20;44.00;;;;;;;9.78;71.26;98957.19;422603;1293;110920;-41
2022/10/13 20:06:12;;;;;;;81.90;44.60;;;;;;;9.61;71.38;98961.63;422463;1289;97128;-42
2022/10/13 20:16:22;;;;;;;77.60;45.30;;;;;;;9.53;71.52;98964.58;422635;1286;96687;-41
2022/10/13 20:26:28;;;;;;;100.90;49.90;;;;;;;9.47;71.86;98963.69;422752;1294;109817;-40
2022/10/13 20:36:36;;;;;;;105.10;51.60;;;;;;;9.31;72.16;98960.46;422470;1288;490767;-41
2022/10/13 20:46:44;;;;;;;;;;;;;;;9.13;72.62;98951.20;422908;1296;97892;-41
2022/10/13 20:56:51;;;;;;;92.50;51.10;;;;;;;9.05;73.02;98945.95;423047;1291;97923;-41
2022/10/13 21:06:59;;;;;;;86.20;47.50;;;;;;;8.93;72.92;98947.49;422806;1295;109710;-50
2022/10/13 21:17:06;;;;;;;83.10;48.70;;;;;;;8.80;73.13;98948.39;422701;1290;108424;-40
2022/10/13 21:27:15;;;;;;;89.80;48.00;;;;;;;8.72;73.28;98947.45;422943;1286;97889;-40
2022/10/13 21:37:22;;;;;;;82.00;44.20;;;;;;;8.65;73.66;98940.82;422947;1294;108382;-41
2022/10/13 21:47:31;;;;;;;88.80;50.10;;;;;;;8.56;73.95;98938.77;422962;1290;97483;-41
2022/10/13 21:57:38;;;;;;;91.60;50.30;;;;;;;8.49;74.08;98933.82;422990;1293;109737;-41
2022/10/13 22:07:45;;;;;;;89.20;48.60;;;;;;;8.45;74.33;98930.52;422901;1296;107098;-42
2022/10/13 22:17:52;;;;;;;94.50;47.30;;;;;;;8.35;74.47;98930.14;422909;1296;97854;-41
2022/10/13 22:27:59;;;;;;;91.40;48.50;;;;;;;8.29;74.59;98918.10;422851;1296;107347;-41
2022/10/13 22:38:06;;;;;;;87.10;52.60;;;;;;;8.15;74.91;98915.06;422983;1279;119942;-41
2022/10/13 22:48:13;;;;;;;88.30;50.00;;;;;;;8.11;75.29;98916.13;423215;1286;112512;-40
2022/10/13 22:58:20;;;;;;;84.00;47.20;;;;;;;8.16;75.28;98909.75;422805;1282;107696;-40
2022/10/13 23:08:28;;;;;;;85.40;44.20;;;;;;;8.18;75.28;98909.21;423112;1294;97777;-41
2022/10/13 23:18:35;;;;;;;75.60;43.40;;;;;;;8.22;75.67;98906.23;422833;1296;108470;-40
2022/10/13 23:28:45;;;;;;;75.10;41.50;;;;;;;8.28;75.65;98898.40;423077;1296;97992;-40
2022/10/13 23:49:01;;;;;;;73.00;40.10;;;;;;;8.34;76.17;98891.11;423065;1286;107632;-40
2022/10/13 23:59:08;;;;;;;75.60;41.60;;;;;;;8.38;76.21;98885.67;422558;1278;97868;-41
